createdAt,value
2023-02-07T00:00:39.336Z,2.50
2023-02-07T00:01:39.420Z,2.10
2023-02-07T00:02:39.340Z,1.70
2023-02-07T00:03:39.315Z,1.50
2023-02-07T00:04:39.277Z,1.90
2023-02-07T00:05:39.571Z,2.20
2023-02-07T00:06:39.247Z,1.90
2023-02-07T00:07:39.234Z,1.60
2023-02-07T00:08:39.202Z,2.10
2023-02-07T00:09:39.244Z,2.00
2023-02-07T00:10:39.213Z,1.60
2023-02-07T00:11:39.168Z,1.90
2023-02-07T00:12:39.171Z,2.60
2023-02-07T00:13:39.193Z,2.80
2023-02-07T00:14:39.132Z,1.80
2023-02-07T00:15:39.400Z,2.10
2023-02-07T00:16:39.207Z,2.30
2023-02-07T00:17:39.102Z,2.00
2023-02-07T00:18:39.100Z,1.70
2023-02-07T00:19:39.098Z,2.60
2023-02-07T00:20:39.070Z,3.00
2023-02-07T00:21:39.092Z,1.60
2023-02-07T00:22:39.061Z,1.60
2023-02-07T00:23:39.056Z,2.10
2023-02-07T00:24:39.024Z,1.90
2023-02-07T00:25:39.311Z,1.90
2023-02-07T00:26:39.022Z,2.00
2023-02-07T00:27:39.058Z,1.20
2023-02-07T00:28:39.146Z,1.60
2023-02-07T00:29:38.982Z,1.70
2023-02-07T00:30:39.031Z,2.10
2023-02-07T00:31:38.991Z,1.70
2023-02-07T00:32:39.009Z,2.00
2023-02-07T00:33:38.955Z,1.00
2023-02-07T00:34:38.935Z,1.40
2023-02-07T00:35:39.142Z,1.30
2023-02-07T00:36:38.916Z,1.20
2023-02-07T00:37:38.886Z,1.20
2023-02-07T00:38:38.920Z,1.30
2023-02-07T00:39:38.866Z,1.30
2023-02-07T00:40:38.850Z,1.20
2023-02-07T00:41:38.850Z,1.10
2023-02-07T00:42:38.844Z,1.10
2023-02-07T00:43:38.848Z,1.20
2023-02-07T00:44:38.844Z,1.00
2023-02-07T00:45:39.067Z,1.40
2023-02-07T00:46:38.823Z,1.30
2023-02-07T00:47:38.782Z,1.40
2023-02-07T00:48:38.757Z,1.50
2023-02-07T00:49:38.822Z,1.30
2023-02-07T00:50:38.741Z,1.20
2023-02-07T00:51:38.758Z,1.70
2023-02-07T00:52:38.730Z,1.20
2023-02-07T00:53:38.737Z,1.20
2023-02-07T00:54:38.695Z,1.10
2023-02-07T00:55:38.951Z,1.50
2023-02-07T00:56:38.669Z,1.40
2023-02-07T00:57:38.667Z,1.30
2023-02-07T00:58:38.670Z,1.20
2023-02-07T00:59:38.679Z,1.40
2023-02-07T01:00:38.671Z,1.90
2023-02-07T01:01:38.667Z,1.50
2023-02-07T01:02:38.624Z,1.30
2023-02-07T01:03:38.616Z,1.20
2023-02-07T01:04:38.675Z,1.10
2023-02-07T01:05:38.855Z,1.60
2023-02-07T01:06:38.588Z,1.30
2023-02-07T01:07:38.552Z,1.00
2023-02-07T01:08:38.553Z,1.70
2023-02-07T01:09:38.608Z,1.00
2023-02-07T01:10:38.534Z,1.50
2023-02-07T01:11:38.544Z,1.50
2023-02-07T01:12:38.533Z,1.30
2023-02-07T01:13:38.506Z,2.30
2023-02-07T01:14:38.494Z,0.80
2023-02-07T01:15:38.846Z,1.30
2023-02-07T01:16:38.457Z,1.30
2023-02-07T01:17:38.501Z,1.50
2023-02-07T01:18:38.437Z,1.10
2023-02-07T01:19:38.435Z,1.40
2023-02-07T01:20:38.437Z,1.60
2023-02-07T01:21:38.400Z,1.90
2023-02-07T01:22:38.395Z,2.50
2023-02-07T01:23:38.413Z,1.30
2023-02-07T01:24:38.378Z,1.30
2023-02-07T01:25:38.540Z,1.50
2023-02-07T01:26:38.351Z,1.60
2023-02-07T01:27:38.328Z,1.60
2023-02-07T01:28:38.337Z,2.40
2023-02-07T01:29:38.343Z,2.00
2023-02-07T01:30:38.366Z,2.00
2023-02-07T01:31:38.376Z,1.20
2023-02-07T01:32:38.320Z,1.20
2023-02-07T01:33:38.308Z,1.70
2023-02-07T01:34:38.309Z,1.90
2023-02-07T01:35:38.609Z,1.80
2023-02-07T01:36:38.261Z,1.90
2023-02-07T01:37:38.217Z,1.80
2023-02-07T01:38:38.245Z,1.70
2023-02-07T01:39:38.199Z,2.10
2023-02-07T01:40:38.274Z,2.30
2023-02-07T01:41:38.220Z,1.70
2023-02-07T01:42:38.195Z,1.50
2023-02-07T01:43:38.166Z,2.60
2023-02-07T01:44:38.156Z,2.00
2023-02-07T01:45:38.534Z,2.20
2023-02-07T01:46:38.123Z,2.00
2023-02-07T01:47:38.132Z,1.90
2023-02-07T01:48:38.104Z,1.70
2023-02-07T01:49:38.094Z,2.00
2023-02-07T01:50:38.075Z,1.70
2023-02-07T01:51:38.150Z,1.90
2023-02-07T01:52:38.044Z,2.60
2023-02-07T01:53:38.059Z,5.70
2023-02-07T01:54:38.042Z,3.10
2023-02-07T01:55:38.340Z,3.40
2023-02-07T01:56:38.016Z,3.90
2023-02-07T01:57:38.050Z,3.10
2023-02-07T01:58:37.999Z,2.30
2023-02-07T01:59:37.976Z,2.20
2023-02-07T02:00:37.965Z,2.00
2023-02-07T02:01:37.992Z,2.20
2023-02-07T02:02:37.985Z,2.50
2023-02-07T02:03:37.963Z,1.90
2023-02-07T02:04:37.904Z,1.80
2023-02-07T02:05:38.165Z,1.80
2023-02-07T02:06:37.886Z,2.20
2023-02-07T02:07:37.892Z,1.90
2023-02-07T02:08:37.945Z,2.20
2023-02-07T02:09:37.851Z,2.30
2023-02-07T02:10:37.843Z,3.00
2023-02-07T02:11:37.834Z,1.80
2023-02-07T02:12:37.824Z,2.50
2023-02-07T02:13:37.824Z,2.00
2023-02-07T02:14:37.830Z,1.70
2023-02-07T02:15:38.194Z,1.70
2023-02-07T02:16:37.783Z,1.80
2023-02-07T02:17:37.816Z,1.80
2023-02-07T02:18:37.769Z,2.00
2023-02-07T02:19:37.739Z,2.50
2023-02-07T02:20:37.816Z,2.00
2023-02-07T02:21:37.727Z,1.70
2023-02-07T02:22:37.717Z,1.90
2023-02-07T02:23:37.696Z,1.80
2023-02-07T02:24:37.685Z,2.00
2023-02-07T02:25:37.929Z,2.10
2023-02-07T02:26:37.724Z,2.40
2023-02-07T02:27:37.662Z,2.10
2023-02-07T02:28:37.644Z,2.50
2023-02-07T02:29:37.638Z,2.20
2023-02-07T02:30:37.665Z,1.70
2023-02-07T02:31:37.654Z,1.80
2023-02-07T02:32:37.587Z,2.40
2023-02-07T02:33:37.586Z,2.70
2023-02-07T02:34:37.567Z,1.70
2023-02-07T02:35:37.815Z,2.00
2023-02-07T02:36:37.584Z,2.30
2023-02-07T02:37:37.548Z,2.60
2023-02-07T02:38:37.528Z,2.40
2023-02-07T02:39:37.509Z,2.70
2023-02-07T02:40:37.497Z,2.20
2023-02-07T02:41:37.509Z,3.10
2023-02-07T02:42:37.479Z,3.20
2023-02-07T02:43:37.581Z,2.20
2023-02-07T02:44:37.458Z,2.40
2023-02-07T02:45:37.742Z,2.90
2023-02-07T02:46:37.489Z,2.20
2023-02-07T02:47:37.429Z,2.40
2023-02-07T02:48:37.409Z,2.90
2023-02-07T02:49:37.434Z,3.30
2023-02-07T02:50:37.431Z,2.80
2023-02-07T02:51:37.387Z,3.90
2023-02-07T02:52:50.330Z,3.00
2023-02-07T02:53:38.364Z,2.40
2023-02-07T02:54:37.362Z,2.20
2023-02-07T02:55:37.545Z,3.40
2023-02-07T02:56:37.316Z,2.70
2023-02-07T02:57:37.309Z,2.30
2023-02-07T02:58:37.308Z,3.50
2023-02-07T02:59:37.323Z,2.20
2023-02-07T03:00:37.282Z,2.70
2023-02-07T03:01:37.298Z,3.90
2023-02-07T03:02:37.252Z,3.10
2023-02-07T03:03:37.253Z,3.00
2023-02-07T03:04:37.233Z,3.10
2023-02-07T03:05:37.523Z,2.70
2023-02-07T03:06:37.218Z,2.10
2023-02-07T03:07:37.220Z,3.60
2023-02-07T03:08:37.338Z,3.30
2023-02-07T03:09:37.183Z,2.90
2023-02-07T03:10:37.168Z,2.50
2023-02-07T03:11:37.192Z,2.50
2023-02-07T03:12:37.142Z,3.40
2023-02-07T03:13:37.145Z,2.70
2023-02-07T03:14:37.125Z,2.40
2023-02-07T03:15:37.505Z,2.60
2023-02-07T03:16:37.145Z,2.40
2023-02-07T03:17:37.142Z,2.70
2023-02-07T03:18:37.064Z,3.00
2023-02-07T03:19:37.133Z,3.40
2023-02-07T03:20:37.056Z,2.10
2023-02-07T03:21:37.035Z,2.60
2023-02-07T03:22:37.124Z,3.80
2023-02-07T03:23:37.023Z,3.10
2023-02-07T03:24:37.007Z,3.30
2023-02-07T03:25:37.352Z,4.00
2023-02-07T03:26:36.977Z,3.10
2023-02-07T03:27:37.000Z,2.60
2023-02-07T03:28:36.953Z,2.80
2023-02-07T03:29:36.964Z,3.00
2023-02-07T03:30:36.951Z,2.90
2023-02-07T03:31:37.035Z,3.10
2023-02-07T03:32:36.920Z,3.00
2023-02-07T03:33:36.935Z,2.50
2023-02-07T03:34:36.923Z,3.40
2023-02-07T03:35:37.292Z,3.90
2023-02-07T03:36:36.899Z,3.90
2023-02-07T03:37:36.907Z,3.40
2023-02-07T03:38:36.840Z,3.50
2023-02-07T03:39:36.865Z,2.90
2023-02-07T03:40:36.953Z,2.90
2023-02-07T03:41:36.806Z,2.80
2023-02-07T03:42:36.794Z,3.80
2023-02-07T03:43:36.790Z,4.80
2023-02-07T03:44:36.790Z,2.90
2023-02-07T03:45:37.063Z,4.20
2023-02-07T03:46:36.800Z,2.90
2023-02-07T03:47:36.814Z,3.60
2023-02-07T03:48:36.728Z,2.90
2023-02-07T03:49:36.711Z,3.80
2023-02-07T03:50:36.851Z,3.90
2023-02-07T03:51:36.701Z,3.40
2023-02-07T03:52:36.675Z,4.80
2023-02-07T03:53:36.690Z,3.10
2023-02-07T03:54:36.694Z,3.80
2023-02-07T03:55:36.984Z,3.60
2023-02-07T03:56:36.687Z,3.30
2023-02-07T03:57:36.637Z,2.60
2023-02-07T03:58:36.624Z,3.40
2023-02-07T03:59:36.610Z,4.10
2023-02-07T04:00:36.643Z,3.00
2023-02-07T04:01:36.627Z,2.90
2023-02-07T04:02:36.567Z,2.90
2023-02-07T04:03:36.578Z,3.00
2023-02-07T04:04:36.597Z,3.80
2023-02-07T04:05:36.784Z,3.90
2023-02-07T04:06:36.528Z,4.50
2023-02-07T04:07:36.541Z,2.90
2023-02-07T04:08:36.514Z,2.80
2023-02-07T04:09:36.494Z,4.20
2023-02-07T04:10:36.493Z,2.60
2023-02-07T04:11:36.466Z,3.40
2023-02-07T04:12:36.465Z,2.90
2023-02-07T04:13:36.500Z,3.60
2023-02-07T04:14:36.429Z,3.10
2023-02-07T04:15:36.614Z,3.30
2023-02-07T04:16:36.498Z,2.80
2023-02-07T04:17:36.434Z,3.50
2023-02-07T04:18:36.386Z,2.70
2023-02-07T04:19:36.467Z,4.00
2023-02-07T04:20:36.365Z,2.50
2023-02-07T04:21:36.346Z,3.10
2023-02-07T04:22:36.341Z,4.50
2023-02-07T04:23:36.317Z,3.40
2023-02-07T04:24:36.326Z,4.20
2023-02-07T04:25:36.521Z,4.00
2023-02-07T04:26:36.323Z,4.50
2023-02-07T04:27:36.285Z,3.30
2023-02-07T04:28:36.266Z,3.80
2023-02-07T04:29:36.256Z,3.30
2023-02-07T04:30:36.325Z,5.20
2023-02-07T04:31:36.254Z,3.20
2023-02-07T04:32:36.254Z,4.60
2023-02-07T04:33:36.228Z,4.00
2023-02-07T04:34:36.207Z,3.30
2023-02-07T04:35:36.513Z,3.80
2023-02-07T04:36:36.218Z,5.60
2023-02-07T04:37:36.165Z,7.20
2023-02-07T04:38:36.144Z,6.10
2023-02-07T04:39:36.140Z,4.90
2023-02-07T04:40:36.141Z,5.50
2023-02-07T04:41:36.102Z,5.70
2023-02-07T04:42:36.154Z,4.70
2023-02-07T04:43:36.115Z,6.30
2023-02-07T04:44:36.072Z,6.40
2023-02-07T04:45:36.265Z,6.00
2023-02-07T04:46:36.073Z,7.30
2023-02-07T04:47:36.043Z,7.20
2023-02-07T04:48:36.067Z,7.40
2023-02-07T04:49:36.070Z,6.80
2023-02-07T04:50:36.014Z,7.70
2023-02-07T04:51:36.016Z,6.50
2023-02-07T04:52:36.001Z,7.00
2023-02-07T04:53:36.005Z,9.50
2023-02-07T04:54:36.012Z,7.50
2023-02-07T04:55:36.295Z,9.40
2023-02-07T04:56:36.422Z,7.70
2023-02-07T04:57:35.958Z,8.10
2023-02-07T04:58:35.973Z,7.80
2023-02-07T04:59:35.935Z,8.60
2023-02-07T05:00:35.909Z,6.50
2023-02-07T05:01:35.916Z,10.10
2023-02-07T05:02:35.906Z,8.10
2023-02-07T05:03:35.850Z,9.00
2023-02-07T05:04:35.992Z,7.70
2023-02-07T05:05:36.040Z,8.50
2023-02-07T05:06:35.820Z,8.00
2023-02-07T05:07:35.802Z,8.80
2023-02-07T05:08:35.810Z,8.70
2023-02-07T05:09:35.797Z,8.10
2023-02-07T05:10:35.768Z,8.30
2023-02-07T05:11:35.847Z,8.90
2023-02-07T05:12:35.751Z,8.80
2023-02-07T05:13:35.729Z,7.70
2023-02-07T05:14:35.721Z,8.60
2023-02-07T05:15:35.870Z,9.30
2023-02-07T05:16:35.751Z,7.70
2023-02-07T05:17:35.720Z,7.70
2023-02-07T05:18:35.680Z,7.20
2023-02-07T05:19:35.665Z,8.90
2023-02-07T05:20:35.641Z,10.10
2023-02-07T05:21:35.665Z,10.10
2023-02-07T05:22:35.647Z,9.10
2023-02-07T05:23:35.663Z,9.80
2023-02-07T05:24:35.614Z,9.50
2023-02-07T05:25:35.767Z,9.30
2023-02-07T05:26:35.580Z,10.00
2023-02-07T05:27:35.582Z,9.40
2023-02-07T05:28:35.582Z,9.50
2023-02-07T05:29:35.556Z,10.90
2023-02-07T05:30:35.651Z,8.80
2023-02-07T05:31:35.612Z,10.20
2023-02-07T05:32:35.512Z,11.30
2023-02-07T05:33:35.505Z,9.40
2023-02-07T05:34:35.517Z,8.90
2023-02-07T05:35:35.626Z,10.40
2023-02-07T05:36:35.473Z,9.80
2023-02-07T05:37:35.492Z,10.30
2023-02-07T05:38:35.462Z,8.90
2023-02-07T05:39:35.462Z,10.80
2023-02-07T05:40:35.499Z,9.40
2023-02-07T05:41:35.523Z,9.90
2023-02-07T05:42:35.407Z,8.70
2023-02-07T05:43:35.403Z,10.40
2023-02-07T05:44:35.376Z,9.70
2023-02-07T05:45:35.366Z,9.40
2023-02-07T05:46:35.364Z,9.80
2023-02-07T05:47:35.347Z,9.80
2023-02-07T05:48:35.343Z,9.80
2023-02-07T05:49:35.308Z,9.10
2023-02-07T05:50:35.301Z,10.40
2023-02-07T05:51:35.288Z,10.40
2023-02-07T05:52:35.891Z,10.60
2023-02-07T05:53:35.264Z,9.70
2023-02-07T05:54:35.263Z,9.00
2023-02-07T05:55:35.241Z,10.00
2023-02-07T05:56:35.230Z,9.30
2023-02-07T05:57:35.251Z,8.60
2023-02-07T05:58:35.237Z,8.60
2023-02-07T05:59:35.190Z,8.70
2023-02-07T06:00:35.208Z,8.30
2023-02-07T06:01:37.332Z,7.80
2023-02-07T06:02:35.210Z,10.00
2023-02-07T06:03:35.182Z,10.10
2023-02-07T06:04:35.211Z,9.10
2023-02-07T06:05:35.156Z,9.50
2023-02-07T06:06:35.112Z,9.30
2023-02-07T06:07:35.111Z,11.30
2023-02-07T06:08:35.106Z,9.80
2023-02-07T06:09:35.076Z,8.80
2023-02-07T06:10:35.089Z,9.60
2023-02-07T06:11:35.075Z,10.40
2023-02-07T06:12:35.086Z,9.50
2023-02-07T06:13:35.075Z,9.00
2023-02-07T06:14:35.035Z,11.60
2023-02-07T06:15:35.065Z,9.60
2023-02-07T06:16:35.036Z,9.80
2023-02-07T06:17:35.020Z,10.00
2023-02-07T06:18:34.967Z,10.50
2023-02-07T06:19:34.959Z,12.20
2023-02-07T06:20:35.000Z,11.50
2023-02-07T06:21:46.118Z,10.50
2023-02-07T06:22:35.980Z,13.80
2023-02-07T06:23:34.940Z,12.40
2023-02-07T06:24:34.904Z,10.70
2023-02-07T06:25:34.897Z,10.50
2023-02-07T06:26:34.889Z,13.30
2023-02-07T06:27:34.876Z,11.70
2023-02-07T06:28:34.899Z,10.50
2023-02-07T06:29:34.865Z,11.90
2023-02-07T06:30:34.855Z,11.70
2023-02-07T06:31:34.879Z,11.60
2023-02-07T06:32:34.810Z,11.30
2023-02-07T06:33:34.827Z,13.50
2023-02-07T06:34:34.800Z,13.20
2023-02-07T06:35:34.788Z,13.70
2023-02-07T06:36:34.781Z,10.60
2023-02-07T06:37:34.739Z,11.40
2023-02-07T06:38:34.727Z,11.50
2023-02-07T06:39:34.749Z,13.70
2023-02-07T06:40:34.709Z,11.80
2023-02-07T06:41:34.727Z,13.70
2023-02-07T06:42:34.714Z,14.50
2023-02-07T06:43:34.686Z,14.10
2023-02-07T06:44:34.716Z,12.80
2023-02-07T06:45:34.671Z,13.70
2023-02-07T06:46:34.682Z,13.80
2023-02-07T06:47:34.632Z,12.30
2023-02-07T06:48:34.625Z,13.70
2023-02-07T06:49:34.625Z,12.00
2023-02-07T06:50:34.648Z,12.30
2023-02-07T06:51:34.638Z,12.50
2023-02-07T06:52:34.574Z,13.60
2023-02-07T06:53:34.595Z,15.30
2023-02-07T06:54:34.599Z,15.50
2023-02-07T06:55:34.577Z,13.60
2023-02-07T06:56:34.553Z,13.30
2023-02-07T06:57:34.543Z,14.80
2023-02-07T06:58:34.512Z,13.60
2023-02-07T06:59:34.547Z,14.50
2023-02-07T07:00:34.528Z,13.90
2023-02-07T07:01:34.564Z,12.90
2023-02-07T07:02:34.507Z,14.60
2023-02-07T07:03:34.573Z,15.10
2023-02-07T07:04:34.434Z,12.60
2023-02-07T07:05:34.420Z,12.40
2023-02-07T07:06:34.611Z,15.20
2023-02-07T07:07:34.423Z,14.30
2023-02-07T07:08:34.493Z,11.40
2023-02-07T07:09:34.417Z,12.90
2023-02-07T07:10:34.481Z,11.70
2023-02-07T07:11:34.401Z,12.10
2023-02-07T07:12:34.356Z,14.40
2023-02-07T07:13:34.374Z,14.30
2023-02-07T07:14:34.350Z,12.80
2023-02-07T07:15:34.317Z,15.70
2023-02-07T07:16:35.407Z,13.20
2023-02-07T07:17:34.388Z,13.00
2023-02-07T07:18:34.336Z,11.90
2023-02-07T07:19:34.279Z,13.70
2023-02-07T07:20:34.290Z,12.80
2023-02-07T07:21:34.245Z,13.50
2023-02-07T07:22:34.248Z,12.50
2023-02-07T07:23:34.255Z,12.20
2023-02-07T07:24:34.262Z,15.10
2023-02-07T07:25:34.206Z,13.00
2023-02-07T07:26:48.298Z,13.00
2023-02-07T07:27:35.202Z,12.40
2023-02-07T07:28:34.179Z,12.10
2023-02-07T07:29:34.209Z,15.50
2023-02-07T07:30:34.246Z,12.30
2023-02-07T07:31:34.168Z,13.50
2023-02-07T07:32:34.724Z,11.20
2023-02-07T07:33:34.213Z,11.90
2023-02-07T07:34:34.087Z,12.70
2023-02-07T07:35:34.136Z,15.10
2023-02-07T07:36:34.093Z,13.40
2023-02-07T07:37:34.078Z,14.10
2023-02-07T07:38:34.071Z,12.70
2023-02-07T07:39:34.132Z,13.20
2023-02-07T07:40:34.037Z,11.70
2023-02-07T07:41:34.055Z,11.40
2023-02-07T07:42:33.985Z,13.30
2023-02-07T07:43:34.005Z,14.50
2023-02-07T07:44:34.003Z,15.70
2023-02-07T07:45:33.962Z,14.00
2023-02-07T07:46:33.976Z,13.60
2023-02-07T07:47:34.014Z,14.40
2023-02-07T07:48:33.962Z,12.80
2023-02-07T07:49:33.912Z,14.80
2023-02-07T07:50:33.903Z,12.30
2023-02-07T07:51:33.928Z,11.90
2023-02-07T07:52:33.913Z,12.10
2023-02-07T07:53:33.873Z,13.80
2023-02-07T07:54:33.841Z,13.20
2023-02-07T07:55:33.845Z,11.30
2023-02-07T07:56:33.828Z,13.90
2023-02-07T07:57:33.831Z,12.50
2023-02-07T07:58:33.877Z,13.90
2023-02-07T07:59:33.792Z,13.90
2023-02-07T08:00:33.845Z,13.60
2023-02-07T08:01:33.791Z,11.60
2023-02-07T08:02:33.795Z,13.50
2023-02-07T08:03:33.771Z,13.20
2023-02-07T08:04:33.756Z,12.90
2023-02-07T08:05:33.732Z,15.00
2023-02-07T08:06:33.705Z,12.50
2023-02-07T08:07:33.722Z,12.30
2023-02-07T08:08:33.693Z,12.70
2023-02-07T08:09:33.681Z,12.20
2023-02-07T08:10:33.756Z,11.20
2023-02-07T08:11:33.656Z,12.70
2023-02-07T08:12:33.654Z,11.10
2023-02-07T08:13:33.618Z,14.10
2023-02-07T08:14:33.644Z,11.10
2023-02-07T08:15:33.668Z,13.60
2023-02-07T08:16:33.659Z,13.30
2023-02-07T08:17:33.605Z,15.20
2023-02-07T08:18:33.575Z,11.70
2023-02-07T08:19:33.569Z,12.40
2023-02-07T08:20:33.567Z,13.80
2023-02-07T08:21:33.528Z,14.90
2023-02-07T08:22:33.570Z,11.00
2023-02-07T08:23:33.513Z,13.70
2023-02-07T08:24:33.502Z,14.90
2023-02-07T08:25:33.499Z,13.40
2023-02-07T08:26:33.482Z,11.30
2023-02-07T08:27:33.533Z,12.60
2023-02-07T08:28:33.451Z,13.30
2023-02-07T08:29:33.446Z,11.20
2023-02-07T08:30:33.438Z,12.20
2023-02-07T08:31:33.596Z,15.30
2023-02-07T08:32:33.421Z,12.80
2023-02-07T08:33:33.468Z,12.50
2023-02-07T08:34:33.412Z,11.10
2023-02-07T08:35:33.381Z,9.90
2023-02-07T08:36:33.377Z,13.70
2023-02-07T08:37:33.400Z,11.00
2023-02-07T08:38:33.367Z,11.60
2023-02-07T08:39:33.337Z,9.40
2023-02-07T08:40:33.327Z,11.80
2023-02-07T08:41:33.307Z,11.00
2023-02-07T08:42:33.296Z,11.40
2023-02-07T08:43:33.339Z,11.80
2023-02-07T08:44:33.332Z,11.00
2023-02-07T08:45:33.347Z,12.80
2023-02-07T08:46:33.285Z,11.80
2023-02-07T08:47:33.266Z,13.10
2023-02-07T08:48:33.246Z,12.40
2023-02-07T08:49:33.216Z,12.00
2023-02-07T08:50:33.226Z,12.80
2023-02-07T08:51:33.207Z,11.10
2023-02-07T08:52:33.185Z,11.40
2023-02-07T08:53:33.190Z,12.50
2023-02-07T08:54:33.167Z,11.90
2023-02-07T08:55:33.390Z,11.60
2023-02-07T08:56:33.147Z,11.30
2023-02-07T08:57:33.131Z,10.90
2023-02-07T08:58:33.124Z,11.70
2023-02-07T08:59:33.108Z,9.70
2023-02-07T09:00:33.099Z,8.60
2023-02-07T09:01:33.199Z,10.90
2023-02-07T09:02:33.253Z,10.10
2023-02-07T09:03:33.065Z,11.30
2023-02-07T09:04:33.050Z,12.20
2023-02-07T09:05:33.044Z,9.70
2023-02-07T09:06:33.021Z,10.20
2023-02-07T09:07:33.074Z,11.60
2023-02-07T09:08:33.005Z,10.90
2023-02-07T09:09:32.993Z,9.90
2023-02-07T09:10:32.977Z,12.10
2023-02-07T09:11:33.013Z,7.80
2023-02-07T09:12:32.960Z,11.50
2023-02-07T09:13:32.959Z,9.80
2023-02-07T09:14:32.946Z,10.50
2023-02-07T09:15:33.309Z,10.20
2023-02-07T09:16:32.963Z,10.50
2023-02-07T09:17:32.916Z,9.10
2023-02-07T09:18:33.000Z,9.20
2023-02-07T09:19:32.903Z,8.80
2023-02-07T09:20:32.975Z,10.60
2023-02-07T09:21:32.861Z,9.80
2023-02-07T09:22:32.839Z,10.50
2023-02-07T09:23:32.861Z,10.80
2023-02-07T09:24:32.897Z,9.80
2023-02-07T09:25:32.822Z,10.80
2023-02-07T09:26:32.875Z,9.00
2023-02-07T09:27:32.881Z,9.20
2023-02-07T09:28:32.865Z,11.50
2023-02-07T09:29:32.762Z,9.10
2023-02-07T09:30:32.867Z,10.50
2023-02-07T09:31:32.833Z,8.70
2023-02-07T09:32:32.729Z,11.10
2023-02-07T09:33:32.825Z,10.80
2023-02-07T09:34:32.776Z,10.40
2023-02-07T09:35:32.699Z,9.40
2023-02-07T09:36:32.729Z,8.00
2023-02-07T09:37:39.975Z,9.60
2023-02-07T09:38:33.666Z,10.90
2023-02-07T09:39:32.689Z,11.10
2023-02-07T09:40:32.685Z,10.50
2023-02-07T09:41:32.626Z,12.10
2023-02-07T09:42:32.645Z,10.20
2023-02-07T09:43:38.072Z,9.70
2023-02-07T09:44:33.703Z,13.70
2023-02-07T09:45:32.724Z,9.30
2023-02-07T09:46:32.604Z,9.60
2023-02-07T09:47:32.567Z,11.00
2023-02-07T09:48:32.578Z,10.40
2023-02-07T09:49:33.485Z,8.90
2023-02-07T09:50:32.527Z,11.30
2023-02-07T09:51:32.529Z,10.70
2023-02-07T09:52:32.506Z,10.80
2023-02-07T09:53:32.498Z,10.90
2023-02-07T09:54:32.719Z,10.40
2023-02-07T09:55:32.646Z,11.20
2023-02-07T09:56:32.615Z,9.10
2023-02-07T09:57:32.446Z,9.40
2023-02-07T09:58:32.439Z,11.50
2023-02-07T09:59:32.440Z,13.30
2023-02-07T10:00:32.555Z,9.40
2023-02-07T10:01:32.439Z,13.00
2023-02-07T10:02:32.508Z,11.80
2023-02-07T10:03:32.375Z,10.60
2023-02-07T10:04:32.375Z,10.00
2023-02-07T10:05:32.398Z,11.90
2023-02-07T10:06:32.348Z,12.20
2023-02-07T10:07:32.351Z,10.40
2023-02-07T10:08:40.671Z,9.30
2023-02-07T10:09:33.350Z,9.10
2023-02-07T10:10:32.300Z,9.80
2023-02-07T10:11:32.344Z,11.50
2023-02-07T10:12:32.278Z,10.60
2023-02-07T10:13:32.275Z,9.90
2023-02-07T10:14:32.275Z,13.50
2023-02-07T10:15:33.222Z,10.50
2023-02-07T10:16:32.254Z,10.50
2023-02-07T10:17:32.445Z,9.10
2023-02-07T10:18:32.200Z,12.20
2023-02-07T10:19:32.202Z,10.00
2023-02-07T10:20:32.189Z,8.80
2023-02-07T10:21:32.175Z,8.20
2023-02-07T10:22:32.213Z,11.50
2023-02-07T10:23:32.172Z,10.10
2023-02-07T10:24:32.367Z,9.70
2023-02-07T10:25:32.171Z,8.00
2023-02-07T10:26:32.134Z,9.70
2023-02-07T10:27:32.132Z,11.20
2023-02-07T10:28:32.100Z,9.40
2023-02-07T10:29:32.158Z,10.30
2023-02-07T10:30:32.134Z,9.50
2023-02-07T10:31:32.191Z,10.30
2023-02-07T10:32:32.066Z,10.20
2023-02-07T10:33:32.068Z,9.10
2023-02-07T10:34:32.050Z,10.90
2023-02-07T10:35:32.017Z,10.20
2023-02-07T10:36:32.017Z,11.30
2023-02-07T10:37:31.987Z,10.70
2023-02-07T10:38:32.105Z,10.20
2023-02-07T10:39:32.009Z,10.60
2023-02-07T10:40:31.963Z,12.10
2023-02-07T10:41:31.971Z,10.10
2023-02-07T10:42:31.979Z,11.90
2023-02-07T10:43:31.960Z,10.60
2023-02-07T10:44:31.964Z,9.20
2023-02-07T10:45:31.916Z,10.10
2023-02-07T10:46:31.907Z,10.20
2023-02-07T10:47:31.886Z,8.90
2023-02-07T10:48:31.904Z,9.90
2023-02-07T10:49:31.983Z,10.30
2023-02-07T10:50:31.937Z,8.80
2023-02-07T10:51:31.841Z,8.80
2023-02-07T10:52:31.833Z,11.30
2023-02-07T10:53:31.807Z,9.80
2023-02-07T10:54:31.817Z,8.80
2023-02-07T10:55:31.813Z,9.00
2023-02-07T10:56:31.796Z,11.50
2023-02-07T10:57:31.782Z,10.90
2023-02-07T10:58:31.746Z,11.40
2023-02-07T10:59:31.735Z,10.90
2023-02-07T11:00:31.756Z,9.10
2023-02-07T11:01:31.800Z,8.70
2023-02-07T11:02:31.869Z,10.00
2023-02-07T11:03:31.744Z,13.20
2023-02-07T11:04:31.692Z,10.60
2023-02-07T11:05:31.685Z,8.90
2023-02-07T11:06:31.702Z,8.70
2023-02-07T11:07:42.665Z,11.70
2023-02-07T11:08:32.699Z,10.80
2023-02-07T11:09:31.637Z,9.60
2023-02-07T11:10:31.618Z,8.60
2023-02-07T11:11:31.603Z,10.80
2023-02-07T11:12:31.638Z,12.50
2023-02-07T11:13:31.601Z,8.40
2023-02-07T11:14:31.565Z,11.00
2023-02-07T11:15:31.561Z,11.40
2023-02-07T11:16:31.538Z,11.30
2023-02-07T11:17:31.532Z,7.20
2023-02-07T11:18:31.549Z,10.10
2023-02-07T11:19:31.513Z,9.10
2023-02-07T11:20:31.490Z,8.60
2023-02-07T11:21:31.492Z,11.10
2023-02-07T11:22:31.481Z,9.20
2023-02-07T11:23:31.461Z,10.10
2023-02-07T11:24:31.485Z,10.50
2023-02-07T11:25:31.434Z,11.30
2023-02-07T11:26:31.421Z,11.20
2023-02-07T11:27:31.412Z,10.00
2023-02-07T11:28:31.409Z,8.30
2023-02-07T11:29:31.436Z,9.00
2023-02-07T11:30:31.394Z,8.50
2023-02-07T11:31:31.402Z,9.60
2023-02-07T11:32:31.384Z,10.50
2023-02-07T11:33:31.345Z,10.10
2023-02-07T11:34:31.348Z,7.90
2023-02-07T11:35:31.332Z,9.70
2023-02-07T11:36:31.311Z,10.80
2023-02-07T11:37:31.328Z,9.10
2023-02-07T11:38:31.327Z,9.40
2023-02-07T11:39:31.278Z,10.40
2023-02-07T11:40:31.303Z,10.10
2023-02-07T11:41:31.273Z,8.70
2023-02-07T11:42:31.244Z,10.90
2023-02-07T11:43:31.242Z,12.10
2023-02-07T11:44:31.250Z,9.60
2023-02-07T11:45:31.221Z,9.10
2023-02-07T11:46:31.357Z,8.90
2023-02-07T11:47:31.172Z,10.70
2023-02-07T11:48:31.196Z,10.10
2023-02-07T11:49:31.162Z,8.30
2023-02-07T11:50:31.182Z,10.20
2023-02-07T11:51:31.140Z,11.40
2023-02-07T11:52:31.132Z,9.50
2023-02-07T11:53:31.120Z,9.90
2023-02-07T11:54:31.087Z,11.30
2023-02-07T11:55:31.107Z,10.60
2023-02-07T11:56:31.072Z,11.70
2023-02-07T11:57:31.310Z,9.60
2023-02-07T11:58:31.083Z,8.60
2023-02-07T11:59:31.041Z,10.00
2023-02-07T12:00:31.034Z,10.60
2023-02-07T12:01:31.040Z,9.00
2023-02-07T12:02:31.087Z,10.70
2023-02-07T12:03:31.026Z,11.70
2023-02-07T12:04:30.988Z,8.00
2023-02-07T12:05:30.962Z,9.60
2023-02-07T12:06:30.990Z,8.60
2023-02-07T12:07:30.970Z,11.20
2023-02-07T12:08:30.961Z,8.80
2023-02-07T12:09:30.976Z,9.80
2023-02-07T12:10:30.944Z,8.30
2023-02-07T12:11:31.085Z,10.20
2023-02-07T12:12:30.888Z,9.00
2023-02-07T12:13:30.874Z,9.40
2023-02-07T12:14:30.905Z,8.30
2023-02-07T12:15:30.902Z,9.30
2023-02-07T12:16:30.929Z,9.60
2023-02-07T12:17:30.819Z,10.00
2023-02-07T12:18:30.863Z,9.90
2023-02-07T12:19:30.806Z,7.90
2023-02-07T12:20:30.830Z,9.10
2023-02-07T12:21:30.845Z,10.40
2023-02-07T12:22:30.774Z,9.30
2023-02-07T12:23:41.398Z,8.60
2023-02-07T12:24:31.741Z,9.10
2023-02-07T12:25:30.846Z,9.20
2023-02-07T12:26:30.736Z,10.30
2023-02-07T12:27:30.722Z,9.80
2023-02-07T12:28:30.735Z,10.90
2023-02-07T12:29:30.737Z,9.70
2023-02-07T12:30:30.671Z,14.50
2023-02-07T12:31:30.809Z,11.40
2023-02-07T12:32:30.754Z,9.40
2023-02-07T12:33:30.642Z,11.50
2023-02-07T12:34:30.640Z,11.30
2023-02-07T12:35:30.622Z,11.10
2023-02-07T12:36:30.628Z,7.90
2023-02-07T12:37:30.624Z,8.20
2023-02-07T12:38:30.627Z,9.40
2023-02-07T12:39:30.564Z,8.70
2023-02-07T12:40:30.603Z,10.60
2023-02-07T12:41:30.554Z,8.30
2023-02-07T12:42:30.536Z,10.30
2023-02-07T12:43:30.526Z,10.00
2023-02-07T12:44:30.550Z,11.10
2023-02-07T12:45:30.527Z,10.80
2023-02-07T12:46:30.497Z,9.40
2023-02-07T12:47:30.523Z,10.20
2023-02-07T12:48:30.486Z,10.40
2023-02-07T12:49:30.455Z,11.20
2023-02-07T12:50:30.602Z,9.40
2023-02-07T12:51:30.957Z,10.20
2023-02-07T12:52:30.416Z,10.60
2023-02-07T12:53:30.471Z,9.90
2023-02-07T12:54:30.395Z,10.70
2023-02-07T12:55:30.385Z,9.40
2023-02-07T12:56:30.405Z,11.20
2023-02-07T12:57:30.358Z,10.90
2023-02-07T12:58:30.346Z,10.40
2023-02-07T12:59:30.340Z,10.30
2023-02-07T13:00:30.346Z,8.60
2023-02-07T13:01:30.318Z,9.20
2023-02-07T13:02:30.344Z,7.80
2023-02-07T13:03:30.285Z,8.80
2023-02-07T13:04:30.308Z,9.10
2023-02-07T13:05:30.274Z,11.10
2023-02-07T13:06:30.249Z,9.40
2023-02-07T13:07:30.257Z,8.70